KLOU/LOU METAR and TAF weather

Enter ICAO airport designator
Station Type Date Time Source
KLOU METAR 2020/09/19 17:53 UTC NOAA

KLOU 191753Z VRB04KT 10SM CLR 19/06 A3030 RMK AO2 SLP259 T01940061 10206 20089 58008


Station Type Date Time Source
KLOU Decoded METAR 2020/09/19 17:53 UTC NOAA

BOWMAN FIELD, KY, United States (KLOU) 38-14N 085-40W 164M
Sep 19, 2020 - 01:53 PM EDT / 2020.09.19 1753 UTC
Wind: Variable at 5 MPH (4 KT):0
Visibility: 10 mile(s):0
Sky conditions: clear
Temperature: 66.9 F (19.4 C)
Dew Point: 43.0 F (6.1 C)
Relative Humidity: 41%
Pressure (altimeter): 30.3 in. Hg (1026 hPa)
Pressure tendency: 0.02 inches (0.8 hPa) lower than three hours ago
ob: KLOU 191753Z VRB04KT 10SM CLR 19/06 A3030 RMK AO2 SLP259 T01940061 10206 20089 58008
cycle: 18

Station Type Date Time Source
KLOU TAF UTC NOAA

Error!

Example: see airport list